Time;durP1;ratioP1;P1;durP2;ratioP2;P2;SDS_P1;SDS_P2;PMS_P1;PMS_P2;Temp;Humidity;BMP_temperature;BMP_pressure;BME280_temperature;BME280_humidity;BME280_pressure;Samples;Min_cycle;Max_cycle;Signal;HPM_P1;HPM_P2
2021/04/27 00:01:19;;;;;;;2.13;1.63;;;2.50;99.90;;;;;;5040522;28;20182;-80
2021/04/27 00:03:46;;;;;;;2.83;2.03;;;2.50;99.90;;;;;;5039925;28;20216;-79
2021/04/27 00:06:13;;;;;;;1.90;1.60;;;2.50;99.90;;;;;;5041420;28;20268;-80
2021/04/27 00:08:40;;;;;;;1.95;1.75;;;2.40;99.90;;;;;;5042036;28;20201;-80
2021/04/27 00:11:09;;;;;;;3.08;2.10;;;2.40;99.90;;;;;;5049339;28;20235;-78
2021/04/27 00:13:37;;;;;;;2.92;1.30;;;2.40;99.90;;;;;;5054223;28;20232;-78
2021/04/27 00:16:05;;;;;;;2.97;1.92;;;2.50;99.90;;;;;;5054846;28;20192;-77
2021/04/27 00:18:32;;;;;;;2.38;1.63;;;2.60;99.90;;;;;;5042047;28;20617;-78
2021/04/27 00:21:00;;;;;;;4.10;1.95;;;2.50;99.90;;;;;;5040502;28;20357;-79
2021/04/27 00:23:27;;;;;;;2.90;1.98;;;2.50;99.90;;;;;;5039660;28;20217;-78
2021/04/27 00:25:54;;;;;;;3.08;2.33;;;2.40;99.90;;;;;;5041078;28;20201;-77
2021/04/27 00:28:22;;;;;;;2.40;2.20;;;2.50;99.90;;;;;;5049823;28;20193;-79
2021/04/27 00:30:51;;;;;;;2.20;1.90;;;2.40;99.90;;;;;;5051243;28;20261;-78
2021/04/27 00:33:18;;;;;;;3.38;2.25;;;2.40;99.90;;;;;;5054508;22;20450;-72
2021/04/27 00:35:45;;;;;;;3.22;2.60;;;2.30;99.90;;;;;;5110676;22;20628;-64
2021/04/27 00:38:12;;;;;;;3.45;1.92;;;2.30;99.90;;;;;;5073182;28;20206;-66
2021/04/27 00:40:44;;;;;;;3.67;2.47;;;2.20;99.90;;;;;;5073250;28;20222;-64
2021/04/27 00:43:11;;;;;;;3.80;2.35;;;2.10;99.90;;;;;;5055261;28;20219;-65
2021/04/27 00:45:38;;;;;;;5.18;2.38;;;2.00;99.90;;;;;;5073313;28;20563;-66
2021/04/27 00:48:07;;;;;;;2.17;1.95;;;1.90;99.90;;;;;;5073152;28;20208;-64
2021/04/27 00:50:37;;;;;;;1.70;1.60;;;1.80;99.90;;;;;;5073106;28;20178;-64
2021/04/27 00:53:05;;;;;;;2.03;1.60;;;1.70;99.90;;;;;;5073415;28;20184;-65
2021/04/27 00:55:34;;;;;;;1.73;1.45;;;1.60;99.90;;;;;;5072839;28;20562;-65
2021/04/27 00:58:01;;;;;;;4.03;1.77;;;1.60;99.90;;;;;;5073110;28;20558;-66
2021/04/27 01:00:31;;;;;;;5.80;1.77;;;1.50;99.90;;;;;;5073030;28;20658;-66
2021/04/27 01:02:59;;;;;;;4.03;1.90;;;1.50;99.90;;;;;;5072764;28;20592;-68
2021/04/27 01:05:30;;;;;;;3.03;2.75;;;1.40;99.90;;;;;;5054452;28;20238;-68
2021/04/27 01:08:04;;;;;;;1.73;1.63;;;1.30;99.90;;;;;;5072320;28;20208;-66
2021/04/27 01:10:52;;;;;;;2.65;2.00;;;1.20;99.90;;;;;;5072507;28;20233;-68
2021/04/27 01:13:25;;;;;;;1.42;1.33;;;1.20;99.90;;;;;;5072114;28;20173;-66
2021/04/27 01:15:52;;;;;;;2.22;1.40;;;1.20;99.90;;;;;;5072756;28;20645;-67
2021/04/27 01:18:21;;;;;;;9.95;2.08;;;1.20;99.90;;;;;;5072688;28;20219;-67
2021/04/27 01:20:51;;;;;;;2.03;1.55;;;1.20;99.90;;;;;;5072770;28;20754;-67
2021/04/27 01:23:47;;;;;;;1.80;1.50;;;1.20;99.90;;;;;;5073252;28;20183;-68
2021/04/27 01:26:37;;;;;;;2.65;2.42;;;1.20;99.90;;;;;;5073505;28;20222;-66
2021/04/27 01:29:08;;;;;;;2.28;1.83;;;1.10;99.90;;;;;;5072883;28;20239;-64
2021/04/27 01:31:37;;;;;;;2.50;1.83;;;1.10;99.90;;;;;;5073247;28;20804;-63
2021/04/27 01:34:06;;;;;;;5.45;2.10;;;1.00;99.90;;;;;;5072483;28;20514;-68
2021/04/27 01:36:35;;;;;;;4.15;1.83;;;1.00;99.90;;;;;;5072226;28;20164;-68
2021/04/27 01:39:06;;;;;;;2.85;1.50;;;1.00;99.90;;;;;;5072712;28;20204;-63
2021/04/27 01:41:34;;;;;;;3.90;2.78;;;1.00;99.90;;;;;;5072725;28;20290;-63
2021/04/27 01:44:02;;;;;;;3.40;1.98;;;0.90;99.90;;;;;;5072191;28;20203;-65
2021/04/27 01:46:31;;;;;;;4.20;2.15;;;0.90;99.90;;;;;;5054389;28;20209;-64
2021/04/27 01:48:59;;;;;;;2.97;1.30;;;0.80;99.90;;;;;;5072056;28;20208;-65
2021/04/27 01:51:28;;;;;;;2.45;1.70;;;0.90;99.90;;;;;;5054076;28;20192;-66
2021/04/27 01:54:23;;;;;;;5.80;3.35;;;0.90;99.90;;;;;;5072382;28;20183;-64
2021/04/27 01:56:50;;;;;;;6.70;3.55;;;1.00;99.90;;;;;;5054346;28;20192;-65
2021/04/27 01:59:18;;;;;;;3.40;2.05;;;1.10;99.90;;;;;;5054208;28;20700;-65
2021/04/27 02:01:47;;;;;;;2.45;1.50;;;1.10;99.90;;;;;;5054228;28;20203;-65
2021/04/27 02:04:21;;;;;;;2.30;1.35;;;1.10;99.90;;;;;;5054054;28;20215;-67
2021/04/27 02:07:08;;;;;;;2.15;1.20;;;1.10;99.90;;;;;;5061796;28;20290;-67
2021/04/27 02:09:36;;;;;;;3.03;1.52;;;1.10;99.90;;;;;;5054720;28;20250;-68
2021/04/27 02:12:27;;;;;;;2.65;1.80;;;1.10;99.90;;;;;;5071915;28;20224;-66
2021/04/27 02:14:55;;;;;;;2.58;2.00;;;1.10;99.90;;;;;;5054337;28;20219;-66
2021/04/27 02:17:32;;;;;;;1.83;1.45;;;1.20;99.90;;;;;;5054183;28;20629;-68
2021/04/27 02:20:02;;;;;;;2.97;1.73;;;1.30;99.90;;;;;;5054243;28;20188;-64
2021/04/27 02:22:48;;;;;;;3.60;2.47;;;1.30;99.90;;;;;;5071941;28;20178;-64
2021/04/27 02:25:33;;;;;;;3.13;1.88;;;1.30;99.90;;;;;;5053909;28;20215;-64
2021/04/27 02:28:00;;;;;;;3.80;1.55;;;1.30;99.90;;;;;;5054083;28;20216;-64
2021/04/27 02:30:28;;;;;;;2.03;1.90;;;1.20;99.90;;;;;;5072756;28;20208;-64
2021/04/27 02:32:56;;;;;;;1.80;1.70;;;1.10;99.90;;;;;;5071909;28;20276;-64
2021/04/27 02:35:24;;;;;;;3.25;1.60;;;1.10;99.90;;;;;;5053812;28;20206;-64
2021/04/27 02:37:56;;;;;;;3.13;1.20;;;1.00;99.90;;;;;;5054162;28;20218;-63
2021/04/27 02:40:39;;;;;;;2.15;1.23;;;1.00;99.90;;;;;;5054111;28;20268;-64
2021/04/27 02:43:06;;;;;;;1.80;1.27;;;1.10;99.90;;;;;;5072007;28;20179;-64
2021/04/27 02:45:46;;;;;;;2.45;1.48;;;1.00;99.90;;;;;;5056130;28;20204;-65
2021/04/27 02:48:26;;;;;;;1.95;1.63;;;1.00;99.90;;;;;;5075584;28;20276;-68
2021/04/27 02:51:19;;;;;;;3.58;1.20;;;1.00;99.90;;;;;;5071701;28;20254;-67
2021/04/27 02:54:08;;;;;;;1.95;1.50;;;1.00;99.90;;;;;;5075351;28;20202;-64
2021/04/27 02:56:37;;;;;;;2.67;2.08;;;1.00;99.90;;;;;;5075541;28;20241;-66
2021/04/27 02:59:06;;;;;;;2.40;1.23;;;1.00;99.90;;;;;;5058730;28;20257;-67
2021/04/27 03:01:36;;;;;;;2.38;1.42;;;1.00;99.90;;;;;;5062165;28;20191;-66
2021/04/27 03:04:07;;;;;;;1.90;1.70;;;1.00;99.90;;;;;;5075658;28;20164;-66
2021/04/27 03:06:54;;;;;;;2.17;1.88;;;1.00;99.90;;;;;;5076336;28;20636;-67
2021/04/27 03:09:29;;;;;;;2.22;1.52;;;0.90;99.90;;;;;;5057378;28;20211;-67
2021/04/27 03:11:57;;;;;;;1.27;1.13;;;0.90;99.90;;;;;;5057353;28;20609;-67
2021/04/27 03:14:24;;;;;;;3.47;1.58;;;0.90;99.90;;;;;;5058149;28;20701;-66
2021/04/27 03:16:51;;;;;;;3.58;1.70;;;0.90;99.90;;;;;;5076741;28;20176;-68
2021/04/27 03:19:19;;;;;;;2.10;1.90;;;0.80;99.90;;;;;;5057106;28;20216;-68
2021/04/27 03:21:59;;;;;;;8.65;2.05;;;0.80;99.90;;;;;;5056585;28;20267;-68
2021/04/27 03:24:27;;;;;;;4.35;1.15;;;0.70;99.90;;;;;;5056458;28;20192;-68
2021/04/27 03:26:55;;;;;;;1.88;1.40;;;0.70;99.90;;;;;;5074372;28;20271;-67
2021/04/27 03:29:35;;;;;;;2.85;1.45;;;0.70;99.90;;;;;;5056409;28;20195;-68
2021/04/27 03:32:05;;;;;;;6.68;2.17;;;0.70;99.90;;;;;;5056106;28;20277;-67
2021/04/27 03:34:36;;;;;;;3.50;1.67;;;0.70;99.90;;;;;;5056281;28;20289;-68
2021/04/27 03:37:05;;;;;;;2.22;1.52;;;0.70;99.90;;;;;;5056243;28;20188;-67
2021/04/27 03:39:33;;;;;;;1.98;1.50;;;0.70;99.90;;;;;;5056118;28;20188;-67
2021/04/27 03:42:01;;;;;;;2.55;2.35;;;0.70;99.90;;;;;;5056133;28;20200;-67
2021/04/27 03:44:28;;;;;;;2.95;1.30;;;0.70;99.90;;;;;;5056303;28;20671;-68
2021/04/27 03:46:55;;;;;;;1.73;1.15;;;0.70;99.90;;;;;;5056441;28;20188;-66
2021/04/27 03:49:23;;;;;;;3.50;1.52;;;0.80;99.90;;;;;;5074375;28;20753;-66
2021/04/27 03:51:51;;;;;;;3.10;1.90;;;0.80;99.90;;;;;;5074260;28;20176;-67
2021/04/27 03:54:19;;;;;;;2.10;1.90;;;0.90;99.90;;;;;;5074562;28;20199;-68
2021/04/27 03:56:47;;;;;;;2.88;1.85;;;0.90;99.90;;;;;;5074161;28;20548;-67
2021/04/27 03:59:14;;;;;;;2.50;1.85;;;0.90;99.90;;;;;;5074417;28;20224;-67
2021/04/27 04:01:43;;;;;;;2.55;2.08;;;0.90;99.90;;;;;;5056641;28;20196;-67
2021/04/27 04:04:11;;;;;;;3.38;2.17;;;1.20;99.90;;;;;;5074661;28;20633;-68
2021/04/27 04:06:48;;;;;;;2.60;1.73;;;1.50;99.90;;;;;;5056454;28;20198;-67
2021/04/27 04:09:35;;;;;;;4.10;2.25;;;2.20;99.90;;;;;;5074346;28;20261;-68
2021/04/27 04:12:10;;;;;;;4.63;2.72;;;3.00;99.90;;;;;;5055928;28;20192;-65
2021/04/27 04:14:38;;;;;;;2.50;1.73;;;3.60;99.90;;;;;;5073676;28;20208;-68
2021/04/27 04:17:09;;;;;;;2.92;2.13;;;4.10;99.90;;;;;;5073737;28;20180;-66
2021/04/27 04:19:37;;;;;;;3.45;2.38;;;4.60;99.90;;;;;;5055488;28;20656;-68
2021/04/27 04:22:06;;;;;;;3.35;3.00;;;5.50;99.90;;;;;;5073599;28;20226;-68
2021/04/27 04:24:49;;;;;;;2.30;2.10;;;6.00;99.90;;;;;;5055549;28;20684;-67
2021/04/27 04:27:17;;;;;;;2.58;2.25;;;6.80;99.90;;;;;;5056475;28;20259;-68
2021/04/27 04:30:16;;;;;;;3.03;1.80;;;7.50;99.90;;;;;;5068695;28;20188;-68
2021/04/27 04:32:43;;;;;;;2.92;2.67;;;7.40;99.90;;;;;;5073563;28;20196;-69
2021/04/27 04:35:31;;;;;;;3.15;2.30;;;7.50;99.90;;;;;;5073628;28;20330;-68
2021/04/27 04:38:22;;;;;;;3.15;1.63;;;7.80;99.90;;;;;;5073474;28;20216;-67
2021/04/27 04:41:10;;;;;;;2.47;1.95;;;8.20;99.90;;;;;;5072912;28;20191;-67
2021/04/27 04:43:56;;;;;;;5.93;2.42;;;9.70;99.90;;;;;;5073021;28;20206;-66
2021/04/27 04:46:41;;;;;;;4.35;2.13;;;10.40;99.90;;;;;;5073065;28;20326;-67
2021/04/27 04:49:28;;;;;;;4.15;2.90;;;9.80;99.90;;;;;;5071017;28;20234;-66
2021/04/27 04:52:18;;;;;;;8.80;2.63;;;10.80;99.90;;;;;;5073018;28;20199;-67
2021/04/27 04:54:51;;;;;;;3.85;3.15;;;11.00;99.90;;;;;;5073203;28;20168;-66
2021/04/27 04:57:36;;;;;;;4.00;3.65;;;12.00;99.90;;;;;;5054773;28;20226;-66
2021/04/27 05:00:05;;;;;;;3.78;2.17;;;12.20;99.90;;;;;;5054761;28;20194;-65
2021/04/27 05:02:52;;;;;;;3.72;3.13;;;11.70;99.90;;;;;;5072308;28;20590;-66
2021/04/27 05:05:44;;;;;;;6.45;2.55;;;11.60;99.90;;;;;;5034719;28;20297;-66
2021/04/27 05:08:34;;;;;;;4.32;2.30;;;11.40;99.90;;;;;;5071702;28;20320;-66
2021/04/27 05:11:19;;;;;;;4.70;2.38;;;12.30;99.90;;;;;;5072542;28;20280;-66
2021/04/27 05:13:54;;;;;;;3.63;2.53;;;11.40;99.90;;;;;;5054498;28;20196;-66
2021/04/27 05:16:22;;;;;;;7.93;2.45;;;11.10;99.90;;;;;;5072799;28;20172;-66
2021/04/27 05:18:51;;;;;;;4.88;2.80;;;10.60;99.90;;;;;;5072372;28;20218;-66
2021/04/27 05:21:19;;;;;;;5.50;2.67;;;9.10;99.90;;;;;;5072576;28;20204;-66
2021/04/27 05:23:46;;;;;;;4.35;2.85;;;6.70;99.90;;;;;;5054381;28;20191;-68
2021/04/27 05:26:14;;;;;;;5.30;3.00;;;5.50;99.90;;;;;;5072175;28;20204;-66
2021/04/27 05:28:41;;;;;;;4.38;2.13;;;5.00;99.90;;;;;;5054600;28;20212;-67
2021/04/27 05:31:09;;;;;;;2.65;2.20;;;4.40;99.90;;;;;;5072646;28;20184;-67
2021/04/27 05:33:36;;;;;;;3.03;2.75;;;4.20;99.90;;;;;;5071937;28;20275;-68
2021/04/27 05:36:05;;;;;;;4.00;2.90;;;4.10;99.90;;;;;;5072240;28;20194;-67
2021/04/27 05:38:32;;;;;;;2.85;2.20;;;4.00;99.90;;;;;;5071972;28;20218;-68
2021/04/27 05:40:59;;;;;;;4.25;2.00;;;3.90;99.90;;;;;;5072296;28;20185;-67
2021/04/27 05:43:26;;;;;;;6.07;2.38;;;3.90;99.90;;;;;;5072474;28;20664;-67
2021/04/27 05:45:53;;;;;;;2.70;2.50;;;3.90;99.90;;;;;;5072190;28;20196;-67
2021/04/27 05:48:21;;;;;;;2.30;2.05;;;3.70;99.90;;;;;;5072472;28;20216;-67
2021/04/27 05:50:49;;;;;;;3.35;2.05;;;3.80;99.90;;;;;;5072036;28;20180;-67
2021/04/27 05:53:16;;;;;;;2.33;2.13;;;3.80;99.90;;;;;;5072574;28;20175;-67
2021/04/27 05:55:43;;;;;;;4.20;2.35;;;3.90;99.90;;;;;;5071940;28;20172;-66
2021/04/27 05:58:11;;;;;;;2.35;2.08;;;4.10;99.90;;;;;;5072036;28;20207;-66
2021/04/27 06:00:38;;;;;;;6.82;2.72;;;4.30;99.90;;;;;;5071932;28;20188;-67
2021/04/27 06:03:26;;;;;;;3.03;1.75;;;4.50;99.90;;;;;;5071885;28;20203;-68
2021/04/27 06:05:53;;;;;;;2.30;2.10;;;4.60;99.90;;;;;;5071790;28;20200;-67
2021/04/27 06:08:20;;;;;;;4.00;2.80;;;4.40;99.90;;;;;;5071521;28;20208;-66
2021/04/27 06:10:48;;;;;;;3.25;2.50;;;4.60;99.90;;;;;;5053894;28;20192;-67
2021/04/27 06:13:16;;;;;;;3.72;3.05;;;4.50;99.90;;;;;;5071784;28;20184;-67
2021/04/27 06:15:43;;;;;;;7.32;2.78;;;4.70;99.90;;;;;;5071740;28;20165;-66
2021/04/27 06:18:10;;;;;;;2.90;1.90;;;4.90;99.90;;;;;;5071854;28;20218;-67
2021/04/27 06:20:38;;;;;;;1.10;0.93;;;5.10;99.90;;;;;;5075819;28;20541;-67
2021/04/27 06:23:06;;;;;;;2.83;2.08;;;5.30;99.90;;;;;;5075956;28;20176;-68
2021/04/27 06:25:33;;;;;;;1.48;1.13;;;5.30;99.90;;;;;;5075777;28;20215;-65
2021/04/27 06:28:00;;;;;;;2.47;1.42;;;5.30;99.90;;;;;;5075531;28;20218;-67
2021/04/27 06:30:27;;;;;;;2.22;1.25;;;5.30;99.90;;;;;;5075441;28;20195;-66
2021/04/27 06:32:54;;;;;;;1.50;1.40;;;5.50;99.90;;;;;;5075882;28;20199;-67
2021/04/27 06:35:25;;;;;;;2.17;1.88;;;5.60;99.90;;;;;;5054812;22;20635;-72
2021/04/27 06:37:54;;;;;;;1.80;1.40;;;5.80;99.90;;;;;;5038766;28;20308;-71
2021/04/27 06:40:22;;;;;;;2.65;1.85;;;6.00;99.90;;;;;;5032861;28;20630;-72
2021/04/27 06:42:49;;;;;;;3.05;2.00;;;5.90;99.90;;;;;;5031675;28;20559;-72
2021/04/27 06:45:17;;;;;;;2.75;2.42;;;5.80;99.90;;;;;;5033559;28;20216;-72
2021/04/27 06:47:46;;;;;;;1.60;1.23;;;5.80;99.90;;;;;;5032264;28;20296;-72
2021/04/27 06:50:14;;;;;;;2.25;1.85;;;5.90;99.90;;;;;;5033613;28;20182;-72
2021/04/27 06:52:41;;;;;;;2.08;1.23;;;6.00;99.90;;;;;;5033689;28;20204;-73
2021/04/27 06:55:10;;;;;;;2.00;1.60;;;6.10;99.90;;;;;;5033796;28;20170;-73
2021/04/27 06:57:38;;;;;;;4.63;1.55;;;6.20;99.90;;;;;;5033577;28;20328;-73
2021/04/27 07:00:08;;;;;;;1.60;1.48;;;6.40;99.90;;;;;;5035377;28;20178;-73
2021/04/27 07:02:35;;;;;;;1.27;0.98;;;6.60;99.90;;;;;;5034550;28;20252;-73
2021/04/27 07:05:04;;;;;;;1.75;0.98;;;6.70;99.90;;;;;;5033675;28;20547;-72
2021/04/27 07:07:31;;;;;;;1.52;1.33;;;6.90;99.90;;;;;;5033844;28;20213;-72
2021/04/27 07:09:58;;;;;;;1.35;1.02;;;7.00;99.90;;;;;;5033603;28;20189;-72
2021/04/27 07:12:26;;;;;;;1.52;1.02;;;7.00;99.90;;;;;;5032430;28;20276;-72
2021/04/27 07:14:54;;;;;;;1.42;1.00;;;6.90;99.90;;;;;;5035312;28;20201;-73
2021/04/27 07:17:21;;;;;;;2.35;1.17;;;6.90;99.90;;;;;;5037471;28;20178;-72
2021/04/27 07:19:48;;;;;;;1.55;1.25;;;6.90;99.90;;;;;;5036336;28;20215;-72
2021/04/27 07:22:16;;;;;;;1.77;1.15;;;7.10;99.90;;;;;;5035754;28;20667;-72
2021/04/27 07:24:43;;;;;;;2.40;1.15;;;7.20;99.90;;;;;;5034944;28;20284;-72
2021/04/27 07:27:10;;;;;;;1.10;0.98;;;7.20;99.90;;;;;;5040940;28;20221;-73
2021/04/27 07:29:38;;;;;;;1.77;1.25;;;7.10;99.90;;;;;;5035911;28;20197;-74
2021/04/27 07:32:10;;;;;;;1.17;0.88;;;7.30;99.90;;;;;;5034825;28;20225;-72
2021/04/27 07:34:37;;;;;;;2.00;1.20;;;7.30;99.90;;;;;;5033469;28;20221;-73
2021/04/27 07:37:05;;;;;;;1.30;0.90;;;7.40;99.90;;;;;;5033917;28;20177;-72
2021/04/27 07:39:32;;;;;;;1.52;0.85;;;7.50;99.90;;;;;;5033259;28;20263;-73
2021/04/27 07:42:00;;;;;;;1.55;1.17;;;7.50;99.90;;;;;;5031560;28;20201;-72
2021/04/27 07:44:28;;;;;;;4.50;1.73;;;7.40;99.90;;;;;;5032860;28;20300;-73
2021/04/27 07:46:56;;;;;;;3.30;1.42;;;7.50;99.90;;;;;;5032818;28;20204;-73
2021/04/27 07:49:24;;;;;;;5.82;1.15;;;7.70;99.90;;;;;;5033290;28;20237;-73
2021/04/27 07:51:51;;;;;;;2.13;1.00;;;7.70;99.90;;;;;;5032301;28;20196;-72
2021/04/27 07:54:18;;;;;;;1.45;1.08;;;7.70;99.90;;;;;;5032654;28;20185;-72
2021/04/27 07:56:45;;;;;;;1.13;0.90;;;7.80;99.90;;;;;;5032240;28;20203;-73
2021/04/27 07:59:13;;;;;;;1.35;0.80;;;8.10;99.90;;;;;;5032328;28;20284;-74
2021/04/27 08:01:40;;;;;;;1.98;1.42;;;8.20;99.90;;;;;;5032068;28;20193;-72
2021/04/27 08:04:09;;;;;;;2.67;1.02;;;8.30;99.90;;;;;;5033131;28;20698;-73
2021/04/27 08:06:37;;;;;;;2.47;1.30;;;8.20;99.90;;;;;;5032557;28;20221;-73
2021/04/27 08:09:07;;;;;;;1.15;0.90;;;8.20;99.90;;;;;;5032496;28;20216;-73
2021/04/27 08:11:37;;;;;;;2.58;1.17;;;8.10;99.90;;;;;;5032049;28;20724;-73
2021/04/27 08:14:05;;;;;;;1.90;1.10;;;8.00;99.90;;;;;;5032623;28;20263;-73
2021/04/27 08:16:32;;;;;;;1.83;1.17;;;8.20;99.90;;;;;;5032178;28;20166;-73
2021/04/27 08:19:00;;;;;;;4.63;1.73;;;8.30;99.90;;;;;;5032361;28;20210;-73
2021/04/27 08:21:29;;;;;;;3.05;1.05;;;8.30;99.90;;;;;;5031805;28;20251;-74
2021/04/27 08:23:57;;;;;;;1.42;1.02;;;8.40;99.90;;;;;;5032645;28;20656;-73
2021/04/27 08:26:26;;;;;;;3.20;1.33;;;8.50;99.90;;;;;;5032054;28;20221;-72
2021/04/27 08:28:54;;;;;;;2.00;1.25;;;8.70;99.90;;;;;;5032082;28;20745;-73
2021/04/27 08:31:29;;;;;;;2.13;1.92;;;8.80;99.90;;;;;;5031671;28;20268;-73
2021/04/27 08:33:57;;;;;;;1.40;1.08;;;8.90;99.90;;;;;;5031699;28;20182;-73
2021/04/27 08:36:25;;;;;;;1.20;0.90;;;9.10;99.90;;;;;;5031028;28;20719;-73
2021/04/27 08:38:54;;;;;;;1.23;0.82;;;9.10;99.90;;;;;;5031469;28;20210;-74
2021/04/27 08:41:24;;;;;;;1.75;1.15;;;9.10;99.90;;;;;;5031211;28;20660;-73
2021/04/27 08:43:52;;;;;;;1.33;0.88;;;9.00;99.90;;;;;;5030441;28;20189;-73
2021/04/27 08:46:20;;;;;;;1.85;1.23;;;8.70;99.90;;;;;;5031656;28;20717;-73
2021/04/27 08:48:49;;;;;;;1.63;1.05;;;8.60;99.90;;;;;;5031358;28;20205;-72
2021/04/27 08:51:16;;;;;;;1.48;0.90;;;8.60;99.90;;;;;;5031276;28;20381;-73
2021/04/27 08:53:44;;;;;;;4.57;1.75;;;8.80;99.90;;;;;;5031892;28;20178;-73
2021/04/27 08:56:13;;;;;;;1.98;1.02;;;8.70;99.90;;;;;;5031460;28;20187;-72
2021/04/27 08:58:40;;;;;;;1.40;1.00;;;8.60;99.90;;;;;;5031503;28;20724;-72
2021/04/27 09:01:08;;;;;;;2.95;1.15;;;8.60;99.90;;;;;;5031415;28;20257;-73
2021/04/27 09:03:42;;;;;;;1.30;0.93;;;8.50;99.90;;;;;;5053590;22;20725;-81
2021/04/27 09:06:15;;;;;;;2.72;1.50;;;8.70;99.90;;;;;;5059153;28;20335;-82
2021/04/27 09:08:43;;;;;;;1.98;0.80;;;8.80;99.90;;;;;;5059523;28;20544;-80
2021/04/27 09:11:31;;;;;;;1.08;0.77;;;9.00;99.90;;;;;;5058535;28;20178;-82
2021/04/27 09:14:22;;;;;;;1.27;1.10;;;9.00;99.90;;;;;;5057719;28;20205;-81
2021/04/27 09:16:52;;;;;;;1.60;0.90;;;9.20;99.90;;;;;;5039648;28;20200;-81
2021/04/27 09:19:34;;;;;;;1.17;0.90;;;9.30;99.90;;;;;;5059868;28;20567;-81
2021/04/27 09:22:05;;;;;;;1.75;1.20;;;9.50;99.90;;;;;;5047241;28;20184;-80
2021/04/27 09:24:35;;;;;;;1.20;1.00;;;9.60;99.90;;;;;;5072729;28;20219;-80
2021/04/27 09:27:05;;;;;;;1.40;1.00;;;9.70;99.90;;;;;;5072630;28;20274;-79
2021/04/27 09:29:34;;;;;;;1.67;1.27;;;9.50;99.90;;;;;;5059772;28;20185;-80
2021/04/27 09:32:02;;;;;;;3.08;1.13;;;9.50;99.90;;;;;;5039782;28;20728;-79
2021/04/27 09:34:31;;;;;;;2.15;1.15;;;9.60;99.90;;;;;;5039623;28;20414;-80
2021/04/27 09:37:00;;;;;;;2.17;1.40;;;9.70;99.90;;;;;;5058154;28;20173;-80
2021/04/27 09:39:37;;;;;;;1.30;0.80;;;9.70;99.90;;;;;;5057480;28;20244;-80
2021/04/27 09:42:08;;;;;;;3.05;1.30;;;9.80;99.90;;;;;;5059963;28;20234;-80
2021/04/27 09:44:41;;;;;;;1.58;0.90;;;9.90;99.90;;;;;;5061275;28;20219;-79
2021/04/27 09:47:14;;;;;;;1.70;1.35;;;10.10;99.90;;;;;;5042844;28;20686;-79
2021/04/27 09:49:56;;;;;;;2.22;1.08;;;10.30;99.90;;;;;;5061803;28;20191;-80
2021/04/27 09:52:24;;;;;;;1.50;1.40;;;10.30;99.90;;;;;;5063447;28;20271;-79
2021/04/27 09:55:00;;;;;;;1.67;1.20;;;10.30;99.90;;;;;;5059459;28;20222;-80
2021/04/27 09:57:30;;;;;;;1.80;1.20;;;10.30;99.90;;;;;;5056514;28;20184;-80
2021/04/27 10:00:20;;;;;;;2.33;0.90;;;10.50;99.90;;;;;;5057529;28;20199;-80
2021/04/27 10:02:47;;;;;;;1.30;0.95;;;10.40;99.90;;;;;;5057834;28;20534;-80
2021/04/27 10:05:15;;;;;;;4.00;1.25;;;9.90;99.90;;;;;;5056967;28;20252;-81
2021/04/27 10:07:43;;;;;;;1.40;0.88;;;10.00;99.90;;;;;;5057302;28;20639;-80
2021/04/27 10:10:12;;;;;;;1.00;0.68;;;10.20;99.90;;;;;;5057657;28;20177;-80
2021/04/27 10:12:41;;;;;;;1.52;1.05;;;10.40;99.90;;;;;;5066417;28;20184;-80
2021/04/27 10:15:10;;;;;;;1.52;1.23;;;10.70;99.90;;;;;;5057673;28;20718;-79
2021/04/27 10:17:38;;;;;;;1.27;0.90;;;10.70;99.90;;;;;;5039769;28;20189;-80
2021/04/27 10:20:11;;;;;;;2.97;1.95;;;10.50;99.90;;;;;;5058150;28;20688;-80
2021/04/27 10:22:40;;;;;;;1.00;0.85;;;10.50;99.90;;;;;;5057707;28;20173;-79
2021/04/27 10:25:10;;;;;;;1.33;1.00;;;10.70;99.90;;;;;;5059744;28;20208;-83
2021/04/27 10:27:38;;;;;;;3.88;1.67;;;10.80;99.90;;;;;;5060537;28;20217;-83
2021/04/27 10:30:41;;;;;;;2.60;1.00;;;10.60;99.90;;;;;;5060603;28;20201;-83
2021/04/27 10:33:14;;;;;;;1.40;1.00;;;10.20;99.90;;;;;;5060773;28;20177;-84
2021/04/27 10:35:43;;;;;;;1.40;1.13;;;10.30;99.90;;;;;;5060964;28;20208;-84
2021/04/27 10:38:12;;;;;;;0.90;0.60;;;10.50;99.90;;;;;;5058779;28;20189;-85
2021/04/27 10:40:48;;;;;;;2.33;1.10;;;10.70;99.90;;;;;;5059064;28;20189;-85
2021/04/27 10:43:37;;;;;;;1.45;1.13;;;10.90;99.90;;;;;;5058689;28;20215;-83
2021/04/27 10:46:09;;;;;;;1.63;1.13;;;10.50;99.90;;;;;;5034603;28;20204;-86
2021/04/27 10:48:38;;;;;;;3.60;1.13;;;10.40;99.90;;;;;;5059001;28;20193;-84
2021/04/27 10:51:39;;;;;;;1.80;1.02;;;10.10;99.90;;;;;;5042629;28;20213;-84
2021/04/27 10:54:10;;;;;;;1.13;0.75;;;10.30;99.90;;;;;;5060463;28;20220;-84
2021/04/27 10:56:41;;;;;;;1.65;1.13;;;10.40;99.90;;;;;;5059369;28;20663;-84
2021/04/27 10:59:10;;;;;;;1.73;0.98;;;10.50;99.90;;;;;;5061733;28;20181;-81
2021/04/27 11:01:41;;;;;;;1.92;1.17;;;10.60;99.90;;;;;;5043144;28;20196;-81
2021/04/27 11:04:26;;;;;;;1.40;0.90;;;11.00;99.90;;;;;;5061106;28;20227;-85
2021/04/27 11:07:10;;;;;;;2.20;0.90;;;11.40;99.90;;;;;;5061645;28;20197;-85
2021/04/27 11:09:38;;;;;;;1.90;1.20;;;11.50;99.90;;;;;;5062950;28;20415;-78
2021/04/27 11:12:32;;;;;;;2.13;1.10;;;11.20;99.90;;;;;;5060850;28;20215;-80
2021/04/27 11:15:02;;;;;;;1.23;1.00;;;11.30;99.90;;;;;;5060424;28;20304;-79
2021/04/27 11:17:31;;;;;;;1.50;1.02;;;10.90;99.90;;;;;;5061606;28;20177;-79
2021/04/27 11:20:00;;;;;;;3.40;1.60;;;10.60;99.90;;;;;;5043289;28;20185;-80
2021/04/27 11:22:31;;;;;;;1.50;1.00;;;10.50;99.90;;;;;;5060492;28;20192;-80
2021/04/27 11:24:59;;;;;;;2.30;1.00;;;10.50;99.90;;;;;;5042773;28;20225;-80
2021/04/27 11:27:29;;;;;;;1.48;1.00;;;10.60;99.90;;;;;;5060735;28;20263;-80
2021/04/27 11:29:59;;;;;;;2.28;1.08;;;10.50;99.90;;;;;;5060702;28;20196;-80
2021/04/27 11:32:30;;;;;;;3.15;2.17;;;10.50;99.90;;;;;;5060344;28;20287;-80
2021/04/27 11:35:11;;;;;;;3.00;1.60;;;10.50;99.90;;;;;;5060189;28;20208;-81
2021/04/27 11:37:41;;;;;;;3.47;1.15;;;10.60;99.90;;;;;;5061163;28;20185;-81
2021/04/27 11:40:27;;;;;;;2.20;1.55;;;10.70;99.90;;;;;;5060520;28;20184;-80
2021/04/27 11:42:59;;;;;;;1.97;1.23;;;10.90;99.90;;;;;;5061153;28;20180;-85
2021/04/27 11:45:29;;;;;;;1.47;1.23;;;11.30;99.90;;;;;;5060582;28;20498;-84
2021/04/27 11:47:58;;;;;;;1.23;1.03;;;11.60;99.90;;;;;;5060288;28;20419;-87
2021/04/27 11:50:28;;;;;;;2.70;1.20;;;11.80;99.90;;;;;;5060032;28;20422;-85
2021/04/27 11:53:02;;;;;;;7.30;1.63;;;12.10;99.90;;;;;;5060379;28;20419;-85
2021/04/27 11:55:39;;;;;;;1.17;0.90;;;12.20;99.90;;;;;;5060583;28;21016;-85
2021/04/27 11:58:09;;;;;;;2.50;1.20;;;12.10;99.90;;;;;;5060913;28;20483;-86
2021/04/27 12:00:48;;;;;;;2.08;1.55;;;11.50;99.90;;;;;;5062284;28;20408;-87
2021/04/27 12:03:24;;;;;;;1.55;1.13;;;11.40;99.90;;;;;;5069795;28;20192;-87
2021/04/27 12:05:55;;;;;;;1.98;1.13;;;11.50;99.90;;;;;;5070281;28;20233;-88
2021/04/27 12:08:26;;;;;;;1.80;1.52;;;11.50;99.90;;;;;;5055389;28;20215;-87
2021/04/27 12:11:10;;;;;;;1.40;0.90;;;11.50;99.90;;;;;;5075877;28;20326;-87
2021/04/27 12:13:41;;;;;;;1.57;1.00;;;11.40;99.90;;;;;;5072648;28;20960;-87
2021/04/27 12:16:11;;;;;;;1.60;1.35;;;11.40;99.90;;;;;;5076970;28;20399;-89
2021/04/27 12:19:03;;;;;;;2.20;1.02;;;11.50;99.90;;;;;;5079101;28;20181;-88
2021/04/27 12:21:39;;;;;;;1.25;0.90;;;11.50;99.90;;;;;;5055328;28;20568;-86
2021/04/27 12:24:11;;;;;;;2.13;1.30;;;11.40;99.90;;;;;;5073782;28;20208;-85
2021/04/27 12:26:41;;;;;;;1.80;1.50;;;11.30;99.90;;;;;;5069691;28;20220;-86
2021/04/27 12:29:09;;;;;;;2.10;1.20;;;11.50;99.90;;;;;;5070943;28;20191;-85
2021/04/27 12:31:37;;;;;;;3.30;1.65;;;11.60;99.90;;;;;;5077524;28;20181;-86
2021/04/27 12:34:07;;;;;;;2.03;1.23;;;11.80;99.90;;;;;;5103512;22;20215;-67
2021/04/27 12:36:38;;;;;;;2.23;1.73;;;11.60;99.90;;;;;;5071642;28;20270;-67
2021/04/27 12:39:10;;;;;;;1.37;1.07;;;11.60;99.90;;;;;;5070440;28;20981;-66
2021/04/27 12:41:43;;;;;;;1.80;1.07;;;11.60;99.90;;;;;;5071750;28;20480;-69
2021/04/27 12:44:31;;;;;;;1.80;1.10;;;11.70;99.90;;;;;;5071990;28;20410;-70
2021/04/27 12:47:01;;;;;;;2.17;1.37;;;11.80;99.90;;;;;;5071776;28;20515;-67
2021/04/27 12:49:30;;;;;;;2.63;1.70;;;11.80;99.90;;;;;;5072053;28;20466;-67
2021/04/27 12:52:05;;;;;;;2.63;2.13;;;11.90;99.90;;;;;;5071912;28;20421;-64
2021/04/27 12:54:34;;;;;;;2.60;1.20;;;12.10;99.90;;;;;;5071688;28;20400;-65
2021/04/27 12:57:07;;;;;;;2.07;1.87;;;12.00;99.90;;;;;;5071705;28;20931;-65
2021/04/27 12:59:37;;;;;;;1.67;1.53;;;12.10;99.90;;;;;;5051649;28;20414;-66
2021/04/27 13:02:07;;;;;;;4.30;1.47;;;12.20;99.90;;;;;;5052054;28;20412;-65
2021/04/27 13:04:44;;;;;;;3.07;1.57;;;11.90;99.90;;;;;;5058540;28;20437;-67
2021/04/27 13:07:28;;;;;;;1.43;1.20;;;12.00;99.90;;;;;;5071101;28;20464;-66
2021/04/27 13:09:57;;;;;;;2.43;1.40;;;11.90;99.90;;;;;;5071439;28;20396;-67
2021/04/27 13:12:27;;;;;;;3.17;1.30;;;11.70;99.90;;;;;;5071604;28;20396;-71
2021/04/27 13:14:55;;;;;;;1.73;1.30;;;12.00;99.90;;;;;;5071995;28;20418;-67
2021/04/27 13:17:26;;;;;;;1.00;0.80;;;12.20;99.90;;;;;;5071171;28;20475;-66